Campbell Foss — WDC7754 — position and weather

sailwx.info

Track history (hours):
 
Tides and Currents Weather Stations Pressure Air Temp Water Temp Dewpoint Dewpoint Depression Visibility Wind Speed Wind Dir Waves Ship Positions

Campbell Foss

Owner: Foss Maritime Co., Seattle, WA. More information available from US FCC via Universal Licensing System and Coast Guard Vessel Documentation Center.

Last reported at 2016-Jul-26 19:34 UTC. Time now 2016-Jul-26 19:52 UTC.
Position N 33°43' W 118°14'.

Length 23 m; draft 16 m.

Type: Tug. MMSI: 367076360.

Date/timePositionNaut miles runAvg speedWind from/ knotsBaromVisibWave heightAir tempDewpointWater temp
2016-Jul-26 19:34N 33°43' W 118°14'3 1.1
2016-Jul-26 16:27N 33°46' W 118°13'2 2.7
2016-Jul-26 15:33N 33°46' W 118°16'2 2.0
2016-Jul-26 14:33N 33°44' W 118°15'1 1.0
2016-Jul-26 13:33N 33°44' W 118°16'2 1.5
2016-Jul-26 12:33N 33°45' W 118°16'3 2.9
2016-Jul-26 11:34N 33°43' W 118°15'3 2.6
2016-Jul-26 10:33N 33°45' W 118°13'0 0.0
2016-Jul-26 09:33N 33°45' W 118°13'0 0.0
2016-Jul-26 08:33N 33°45' W 118°13'0 0.0
2016-Jul-26 07:34N 33°45' W 118°13'0 0.5
2016-Jul-26 06:33N 33°46' W 118°13'1 0.8
2016-Jul-26 05:31N 33°45' W 118°13'2 2.1
2016-Jul-26 04:33N 33°44' W 118°15'4 4.1
2016-Jul-26 03:32N 33°44' W 118°10'3 2.8
2016-Jul-26 02:33N 33°45' W 118°13'0 0.0
2016-Jul-26 01:33N 33°45' W 118°13'0 0.2
2016-Jul-26 00:33N 33°46' W 118°13'0 0.2
2016-Jul-25 23:33N 33°46' W 118°13'1 1.2
2016-Jul-25 22:33N 33°45' W 118°12'4 3.7
2016-Jul-25 21:33N 33°44' W 118°17'0 0.3
2016-Jul-25 20:33N 33°45' W 118°16'3 2.8
2016-Jul-25 19:33N 33°45' W 118°13'1 0.7
2016-Jul-25 18:33N 33°46' W 118°13'0 0.0
2016-Jul-25 17:33N 33°46' W 118°13'0 0.5
2016-Jul-25 16:33N 33°45' W 118°13'3 2.9
2016-Jul-25 15:33N 33°43' W 118°15'1 1.0
2016-Jul-25 14:09N 33°44' W 118°16'3 4.9
2016-Jul-25 13:33N 33°46' W 118°14'1 1.3
2016-Jul-25 12:33N 33°45' W 118°13'0 0.2
2016-Jul-25 11:11N 33°45' W 118°13'0 0.0
2016-Jul-25 09:31N 33°45' W 118°13'0 0.0
2016-Jul-25 08:11N 33°45' W 118°13'0 0.0
2016-Jul-25 07:23N 33°45' W 118°13'0 0.6
2016-Jul-25 06:33N 33°46' W 118°13'0 0.1
2016-Jul-25 05:28N 33°46' W 118°13'1 0.7
2016-Jul-25 04:33N 33°46' W 118°13'2 1.9
2016-Jul-25 03:33N 33°44' W 118°12'0 0.5
2016-Jul-25 02:33N 33°45' W 118°12'1 1.5
2016-Jul-25 01:33N 33°46' W 118°13'0 0.0
2016-Jul-25 00:33N 33°46' W 118°13'0 0.3
2016-Jul-24 23:33N 33°45' W 118°13'1 1.2
2016-Jul-24 22:33N 33°44' W 118°12'2 1.9
2016-Jul-24 21:33N 33°44' W 118°10'0 0.4
2016-Jul-24 20:31N 33°44' W 118°10'3 2.9
2016-Jul-24 19:33N 33°46' W 118°13'0 0.0
2016-Jul-24 18:33N 33°46' W 118°13'0 0.4
2016-Jul-24 17:26N 33°45' W 118°13'0 0.0
2016-Jul-24 16:30N 33°45' W 118°13'0 0.0
2016-Jul-24 15:23N 33°45' W 118°13'2 2.0
2016-Jul-24 14:28N 33°44' W 118°12'2 2.4
2016-Jul-24 13:33N 33°46' W 118°13'2 2.2
2016-Jul-24 12:26N 33°44' W 118°11'4 4.4
2016-Jul-24 11:33N 33°45' W 118°16'0 0.3
2016-Jul-24 10:26N 33°46' W 118°16'0 0.0
2016-Jul-24 09:32N 33°46' W 118°16'2 2.4
2016-Jul-24 08:33N 33°44' W 118°16'2 2.0
2016-Jul-24 07:32N 33°44' W 118°14'2 2.2
2016-Jul-24 06:33N 33°46' W 118°13'0 0.0
2016-Jul-24 05:32N 33°46' W 118°13'3 3.2
2016-Jul-24 04:29N 33°43' W 118°15'3 2.8
2016-Jul-24 03:29N 33°45' W 118°17'2 1.7
2016-Jul-24 02:23N 33°44' W 118°15'2 1.9
2016-Jul-24 01:18N 33°46' W 118°17'0 0.3
2016-Jul-24 00:12N 33°46' W 118°17'1 2.1
2016-Jul-23 23:33N 33°45' W 118°16'0 0.1
2016-Jul-23 22:31N 33°45' W 118°16'3 2.6
2016-Jul-23 21:12N 33°46' W 118°13'0 0.0
2016-Jul-23 20:33N 33°46' W 118°13'0 0.1
2016-Jul-23 19:33N 33°46' W 118°13'1 0.6
2016-Jul-23 18:33N 33°46' W 118°13'3 3.4
2016-Jul-23 17:31N 33°43' W 118°16'3 3.0
2016-Jul-23 16:33N 33°46' W 118°17'0 0.5
2016-Jul-23 15:33N 33°45' W 118°16'0 0.0
2016-Jul-23 14:33N 33°45' W 118°16'0 0.0
2016-Jul-23 13:32N 33°45' W 118°16'1 0.7
2016-Jul-23 12:27N 33°46' W 118°16'1 0.4
2016-Jul-23 10:24N 33°45' W 118°16'0 0.0
2016-Jul-23 09:30N 33°45' W 118°16'0 0.0
2016-Jul-23 08:30N 33°45' W 118°16'0 0.0
2016-Jul-23 07:32N 33°45' W 118°16'3 2.6
2016-Jul-23 06:33N 33°46' W 118°13'3 0.7
2016-Jul-23 02:31N 33°44' W 118°16'2 1.2
2016-Jul-23 00:33N 33°46' W 118°17'0 0.1
2016-Jul-22 23:33N 33°46' W 118°17'0 0.1
2016-Jul-22 22:32N 33°46' W 118°17'1 1.1
2016-Jul-22 21:30N 33°45' W 118°16'3 2.6
2016-Jul-22 20:33N 33°43' W 118°14'2 2.0
2016-Jul-22 19:33N 33°44' W 118°12'2 1.2
2016-Jul-22 18:17N 33°46' W 118°13'0 0.0
2016-Jul-22 17:32N 33°46' W 118°13'1 0.4
2016-Jul-22 16:05N 33°46' W 118°13'0 0.0
2016-Jul-22 15:27N 33°46' W 118°13'0 0.0
2016-Jul-22 14:32N 33°46' W 118°13'0 0.0
2016-Jul-22 13:31N 33°46' W 118°13'0 0.0
2016-Jul-22 12:32N 33°46' W 118°13'0 0.0
2016-Jul-22 10:31N 33°46' W 118°13'0 0.0
2016-Jul-22 08:23N 33°46' W 118°13'0 0.0
2016-Jul-22 07:33N 33°46' W 118°13'1 0.3
2016-Jul-22 05:33N 33°46' W 118°13'0 0.2
2016-Jul-22 03:33N 33°45' W 118°13'0 0.2
2016-Jul-22 02:30N 33°45' W 118°13'2 1.4
2016-Jul-22 01:23N 33°44' W 118°12'1 0.9
2016-Jul-22 00:33N 33°44' W 118°12'1 1.4
2016-Jul-21 23:33N 33°45' W 118°10'1 1.3
2016-Jul-21 22:31N 33°44' W 118°11'1 0.8
2016-Jul-21 21:33N 33°44' W 118°12'1 1.2
2016-Jul-21 20:33N 33°43' W 118°11'3 2.8
2016-Jul-21 19:33N 33°46' W 118°13'0 0.0
2016-Jul-21 18:33N 33°46' W 118°13'1 0.7
2016-Jul-21 17:31N 33°45' W 118°13'2 2.3
2016-Jul-21 16:33N 33°45' W 118°16'1 0.5
2016-Jul-21 15:33N 33°45' W 118°16'0 0.0
2016-Jul-21 14:33N 33°45' W 118°16'0 0.0
2016-Jul-21 13:33N 33°45' W 118°16'0 0.2
2016-Jul-21 12:33N 33°45' W 118°16'3 2.6
2016-Jul-21 11:33N 33°43' W 118°15'3 3.2
2016-Jul-21 10:33N 33°46' W 118°16'0 0.0
2016-Jul-21 09:29N 33°46' W 118°16'2 2.1
2016-Jul-21 08:33N 33°44' W 118°15'1 0.6
2016-Jul-21 07:33N 33°44' W 118°16'3 3.0
2016-Jul-21 06:33N 33°46' W 118°13'1 0.6
2016-Jul-21 05:31N 33°46' W 118°13'1 0.2
2016-Jul-21 01:33N 33°46' W 118°13'2 1.5
2016-Jul-21 00:22N 33°46' W 118°15'1 1.8
2016-Jul-20 23:33N 33°45' W 118°16'2 1.9
2016-Jul-20 22:33N 33°43' W 118°16'2 1.9
2016-Jul-20 21:33N 33°45' W 118°16'3 2.8
2016-Jul-20 20:33N 33°45' W 118°13'1 1.2
2016-Jul-20 19:33N 33°46' W 118°13'0 0.0
2016-Jul-20 18:33N 33°46' W 118°13'0 0.4
2016-Jul-20 17:33N 33°45' W 118°13'2 1.4
2016-Jul-20 16:30N 33°44' W 118°12'3 3.1
2016-Jul-20 15:31N 33°46' W 118°15'0 0.4
2016-Jul-20 14:31N 33°46' W 118°16'1 0.7
2016-Jul-20 12:32N 33°46' W 118°14'3 2.2
2016-Jul-20 11:24N 33°44' W 118°12'1 1.6
2016-Jul-20 10:32N 33°45' W 118°13'0 0.0
2016-Jul-20 09:14N 33°45' W 118°13'0 0.0
2016-Jul-20 08:32N 33°45' W 118°13'0 0.0
2016-Jul-20 07:33N 33°45' W 118°13'2 2.1
2016-Jul-20 06:33N 33°46' W 118°16'0 0.2
2016-Jul-20 05:33N 33°46' W 118°16'3 2.7
2016-Jul-20 04:33N 33°43' W 118°15'1 0.6
2016-Jul-20 03:32N 33°43' W 118°16'3 2.8
2016-Jul-20 02:33N 33°46' W 118°15'2 0.5
2016-Jul-19 22:09N 33°46' W 118°13'0 0.0
2016-Jul-19 20:23N 33°46' W 118°13'1 0.7
2016-Jul-19 19:33N 33°46' W 118°13'0 0.2
2016-Jul-19 18:33N 33°46' W 118°13'0 0.0
2016-Jul-19 16:14N 33°46' W 118°13'1 0.2
2016-Jul-19 13:19N 33°45' W 118°13'1 0.7
2016-Jul-19 12:16N 33°45' W 118°12'1 0.7
2016-Jul-19 11:33N 33°45' W 118°13'2 0.8
2016-Jul-19 09:33N 33°46' W 118°13'0 0.0
2016-Jul-19 07:26N 33°46' W 118°13'2 0.5
2016-Jul-19 04:33N 33°46' W 118°15'1 0.9
2016-Jul-19 03:33N 33°46' W 118°16'0 0.1
2016-Jul-19 02:33N 33°46' W 118°16'2 1.7
2016-Jul-19 01:33N 33°46' W 118°14'1 0.7
2016-Jul-19 00:33N 33°46' W 118°13'0 0.0
2016-Jul-18 23:32N 33°46' W 118°13'1 0.7
2016-Jul-18 22:33N 33°46' W 118°13'3 2.9
2016-Jul-18 21:33N 33°45' W 118°16'0 0.3
2016-Jul-18 20:33N 33°45' W 118°16'3 2.7
2016-Jul-18 19:33N 33°44' W 118°13'2 0.4
2016-Jul-18 13:16N 33°46' W 118°14'1 0.4
2016-Jul-18 11:31N 33°46' W 118°13'3 1.5
2016-Jul-18 09:17N 33°44' W 118°16'4 4.8
2016-Jul-18 08:29N 33°42' W 118°12'3 2.8
2016-Jul-18 07:14N 33°46' W 118°13'0 0.0
2016-Jul-18 06:23N 33°46' W 118°13'2 0.6
2016-Jul-18 02:33N 33°45' W 118°16'0 0.1
2016-Jul-18 01:30N 33°45' W 118°16'3 2.9
2016-Jul-18 00:30N 33°43' W 118°14'3 2.7
2016-Jul-17 23:25N 33°45' W 118°12'0 0.1
2016-Jul-17 22:32N 33°45' W 118°12'1 1.0
2016-Jul-17 21:27N 33°44' W 118°11'2 0.8
2016-Jul-17 18:12N 33°46' W 118°13'1 0.3
2016-Jul-17 14:12N 33°45' W 118°12'0 0.6
2016-Jul-17 13:30N 33°44' W 118°12'2 1.4
2016-Jul-17 12:22N 33°46' W 118°13'0 0.4
2016-Jul-17 11:21N 33°46' W 118°13'4 4.5
2016-Jul-17 10:32N 33°43' W 118°16'3 2.6
2016-Jul-17 09:32N 33°46' W 118°16'2 0.7
2016-Jul-17 06:26N 33°46' W 118°13'1 0.2
2016-Jul-17 02:28N 33°45' W 118°14'0 0.1
2016-Jul-17 01:33N 33°45' W 118°14'1 1.0
2016-Jul-17 00:08N 33°46' W 118°13'  
Track history (hours):
 
Tides and Currents Weather Stations Pressure Air Temp Water Temp Dewpoint Dewpoint Depression Visibility Wind Speed Wind Dir Waves Ship Positions

Campbell Foss

Owner: Foss Maritime Co., Seattle, WA. More information available from US FCC via Universal Licensing System and Coast Guard Vessel Documentation Center.

Last reported at 2016-Jul-26 19:34 UTC. Time now 2016-Jul-26 19:52 UTC.
Position N 33°43' W 118°14'.

Length 23 m; draft 16 m.

Type: Tug. MMSI: 367076360.

Date/timePositionNaut miles runAvg speedWind from/ knotsBaromVisibWave heightAir tempDewpointWater temp
2016-Jul-26 19:34N 33°43' W 118°14'3 1.1
2016-Jul-26 16:27N 33°46' W 118°13'2 2.7
2016-Jul-26 15:33N 33°46' W 118°16'2 2.0
2016-Jul-26 14:33N 33°44' W 118°15'1 1.0
2016-Jul-26 13:33N 33°44' W 118°16'2 1.5
2016-Jul-26 12:33N 33°45' W 118°16'3 2.9
2016-Jul-26 11:34N 33°43' W 118°15'3 2.6
2016-Jul-26 10:33N 33°45' W 118°13'0 0.0
2016-Jul-26 09:33N 33°45' W 118°13'0 0.0
2016-Jul-26 08:33N 33°45' W 118°13'0 0.0
2016-Jul-26 07:34N 33°45' W 118°13'0 0.5
2016-Jul-26 06:33N 33°46' W 118°13'1 0.8
2016-Jul-26 05:31N 33°45' W 118°13'2 2.1
2016-Jul-26 04:33N 33°44' W 118°15'4 4.1
2016-Jul-26 03:32N 33°44' W 118°10'3 2.8
2016-Jul-26 02:33N 33°45' W 118°13'0 0.0
2016-Jul-26 01:33N 33°45' W 118°13'0 0.2
2016-Jul-26 00:33N 33°46' W 118°13'0 0.2
2016-Jul-25 23:33N 33°46' W 118°13'1 1.2
2016-Jul-25 22:33N 33°45' W 118°12'4 3.7
2016-Jul-25 21:33N 33°44' W 118°17'0 0.3
2016-Jul-25 20:33N 33°45' W 118°16'3 2.8
2016-Jul-25 19:33N 33°45' W 118°13'1 0.7
2016-Jul-25 18:33N 33°46' W 118°13'0 0.0
2016-Jul-25 17:33N 33°46' W 118°13'0 0.5
2016-Jul-25 16:33N 33°45' W 118°13'3 2.9
2016-Jul-25 15:33N 33°43' W 118°15'1 1.0
2016-Jul-25 14:09N 33°44' W 118°16'3 4.9
2016-Jul-25 13:33N 33°46' W 118°14'1 1.3
2016-Jul-25 12:33N 33°45' W 118°13'0 0.2
2016-Jul-25 11:11N 33°45' W 118°13'0 0.0
2016-Jul-25 09:31N 33°45' W 118°13'0 0.0
2016-Jul-25 08:11N 33°45' W 118°13'0 0.0
2016-Jul-25 07:23N 33°45' W 118°13'0 0.6
2016-Jul-25 06:33N 33°46' W 118°13'0 0.1
2016-Jul-25 05:28N 33°46' W 118°13'1 0.7
2016-Jul-25 04:33N 33°46' W 118°13'2 1.9
2016-Jul-25 03:33N 33°44' W 118°12'0 0.5
2016-Jul-25 02:33N 33°45' W 118°12'1 1.5
2016-Jul-25 01:33N 33°46' W 118°13'0 0.0
2016-Jul-25 00:33N 33°46' W 118°13'0 0.3
2016-Jul-24 23:33N 33°45' W 118°13'1 1.2
2016-Jul-24 22:33N 33°44' W 118°12'2 1.9
2016-Jul-24 21:33N 33°44' W 118°10'0 0.4
2016-Jul-24 20:31N 33°44' W 118°10'3 2.9
2016-Jul-24 19:33N 33°46' W 118°13'0 0.0
2016-Jul-24 18:33N 33°46' W 118°13'0 0.4
2016-Jul-24 17:26N 33°45' W 118°13'0 0.0
2016-Jul-24 16:30N 33°45' W 118°13'0 0.0
2016-Jul-24 15:23N 33°45' W 118°13'2 2.0
2016-Jul-24 14:28N 33°44' W 118°12'2 2.4
2016-Jul-24 13:33N 33°46' W 118°13'2 2.2
2016-Jul-24 12:26N 33°44' W 118°11'4 4.4
2016-Jul-24 11:33N 33°45' W 118°16'0 0.3
2016-Jul-24 10:26N 33°46' W 118°16'0 0.0
2016-Jul-24 09:32N 33°46' W 118°16'2 2.4
2016-Jul-24 08:33N 33°44' W 118°16'2 2.0
2016-Jul-24 07:32N 33°44' W 118°14'2 2.2
2016-Jul-24 06:33N 33°46' W 118°13'0 0.0
2016-Jul-24 05:32N 33°46' W 118°13'3 3.2
2016-Jul-24 04:29N 33°43' W 118°15'3 2.8
2016-Jul-24 03:29N 33°45' W 118°17'2 1.7
2016-Jul-24 02:23N 33°44' W 118°15'2 1.9
2016-Jul-24 01:18N 33°46' W 118°17'0 0.3
2016-Jul-24 00:12N 33°46' W 118°17'1 2.1
2016-Jul-23 23:33N 33°45' W 118°16'0 0.1
2016-Jul-23 22:31N 33°45' W 118°16'3 2.6
2016-Jul-23 21:12N 33°46' W 118°13'0 0.0
2016-Jul-23 20:33N 33°46' W 118°13'0 0.1
2016-Jul-23 19:33N 33°46' W 118°13'1 0.6
2016-Jul-23 18:33N 33°46' W 118°13'3 3.4
2016-Jul-23 17:31N 33°43' W 118°16'3 3.0
2016-Jul-23 16:33N 33°46' W 118°17'0 0.5
2016-Jul-23 15:33N 33°45' W 118°16'0 0.0
2016-Jul-23 14:33N 33°45' W 118°16'0 0.0
2016-Jul-23 13:32N 33°45' W 118°16'1 0.7
2016-Jul-23 12:27N 33°46' W 118°16'1 0.4
2016-Jul-23 10:24N 33°45' W 118°16'0 0.0
2016-Jul-23 09:30N 33°45' W 118°16'0 0.0
2016-Jul-23 08:30N 33°45' W 118°16'0 0.0
2016-Jul-23 07:32N 33°45' W 118°16'3 2.6
2016-Jul-23 06:33N 33°46' W 118°13'3 0.7
2016-Jul-23 02:31N 33°44' W 118°16'2 1.2
2016-Jul-23 00:33N 33°46' W 118°17'0 0.1
2016-Jul-22 23:33N 33°46' W 118°17'0 0.1
2016-Jul-22 22:32N 33°46' W 118°17'1 1.1
2016-Jul-22 21:30N 33°45' W 118°16'3 2.6
2016-Jul-22 20:33N 33°43' W 118°14'2 2.0
2016-Jul-22 19:33N 33°44' W 118°12'2 1.2
2016-Jul-22 18:17N 33°46' W 118°13'0 0.0
2016-Jul-22 17:32N 33°46' W 118°13'1 0.4
2016-Jul-22 16:05N 33°46' W 118°13'0 0.0
2016-Jul-22 15:27N 33°46' W 118°13'0 0.0
2016-Jul-22 14:32N 33°46' W 118°13'0 0.0
2016-Jul-22 13:31N 33°46' W 118°13'0 0.0
2016-Jul-22 12:32N 33°46' W 118°13'0 0.0
2016-Jul-22 10:31N 33°46' W 118°13'0 0.0
2016-Jul-22 08:23N 33°46' W 118°13'0 0.0
2016-Jul-22 07:33N 33°46' W 118°13'1 0.3
2016-Jul-22 05:33N 33°46' W 118°13'0 0.2
2016-Jul-22 03:33N 33°45' W 118°13'0 0.2
2016-Jul-22 02:30N 33°45' W 118°13'2 1.4
2016-Jul-22 01:23N 33°44' W 118°12'1 0.9
2016-Jul-22 00:33N 33°44' W 118°12'1 1.4
2016-Jul-21 23:33N 33°45' W 118°10'1 1.3
2016-Jul-21 22:31N 33°44' W 118°11'1 0.8
2016-Jul-21 21:33N 33°44' W 118°12'1 1.2
2016-Jul-21 20:33N 33°43' W 118°11'3 2.8
2016-Jul-21 19:33N 33°46' W 118°13'0 0.0
2016-Jul-21 18:33N 33°46' W 118°13'1 0.7
2016-Jul-21 17:31N 33°45' W 118°13'2 2.3
2016-Jul-21 16:33N 33°45' W 118°16'1 0.5
2016-Jul-21 15:33N 33°45' W 118°16'0 0.0
2016-Jul-21 14:33N 33°45' W 118°16'0 0.0
2016-Jul-21 13:33N 33°45' W 118°16'0 0.2
2016-Jul-21 12:33N 33°45' W 118°16'3 2.6
2016-Jul-21 11:33N 33°43' W 118°15'3 3.2
2016-Jul-21 10:33N 33°46' W 118°16'0 0.0
2016-Jul-21 09:29N 33°46' W 118°16'2 2.1
2016-Jul-21 08:33N 33°44' W 118°15'1 0.6
2016-Jul-21 07:33N 33°44' W 118°16'3 3.0
2016-Jul-21 06:33N 33°46' W 118°13'1 0.6
2016-Jul-21 05:31N 33°46' W 118°13'1 0.2
2016-Jul-21 01:33N 33°46' W 118°13'2 1.5
2016-Jul-21 00:22N 33°46' W 118°15'1 1.8
2016-Jul-20 23:33N 33°45' W 118°16'2 1.9
2016-Jul-20 22:33N 33°43' W 118°16'2 1.9
2016-Jul-20 21:33N 33°45' W 118°16'3 2.8
2016-Jul-20 20:33N 33°45' W 118°13'1 1.2
2016-Jul-20 19:33N 33°46' W 118°13'0 0.0
2016-Jul-20 18:33N 33°46' W 118°13'0 0.4
2016-Jul-20 17:33N 33°45' W 118°13'2 1.4
2016-Jul-20 16:30N 33°44' W 118°12'3 3.1
2016-Jul-20 15:31N 33°46' W 118°15'0 0.4
2016-Jul-20 14:31N 33°46' W 118°16'1 0.7
2016-Jul-20 12:32N 33°46' W 118°14'3 2.2
2016-Jul-20 11:24N 33°44' W 118°12'1 1.6
2016-Jul-20 10:32N 33°45' W 118°13'0 0.0
2016-Jul-20 09:14N 33°45' W 118°13'0 0.0
2016-Jul-20 08:32N 33°45' W 118°13'0 0.0
2016-Jul-20 07:33N 33°45' W 118°13'2 2.1
2016-Jul-20 06:33N 33°46' W 118°16'0 0.2
2016-Jul-20 05:33N 33°46' W 118°16'3 2.7
2016-Jul-20 04:33N 33°43' W 118°15'1 0.6
2016-Jul-20 03:32N 33°43' W 118°16'3 2.8
2016-Jul-20 02:33N 33°46' W 118°15'2 0.5
2016-Jul-19 22:09N 33°46' W 118°13'0 0.0
2016-Jul-19 20:23N 33°46' W 118°13'1 0.7
2016-Jul-19 19:33N 33°46' W 118°13'0 0.2
2016-Jul-19 18:33N 33°46' W 118°13'0 0.0
2016-Jul-19 16:14N 33°46' W 118°13'1 0.2
2016-Jul-19 13:19N 33°45' W 118°13'1 0.7
2016-Jul-19 12:16N 33°45' W 118°12'1 0.7
2016-Jul-19 11:33N 33°45' W 118°13'2 0.8
2016-Jul-19 09:33N 33°46' W 118°13'0 0.0
2016-Jul-19 07:26N 33°46' W 118°13'2 0.5
2016-Jul-19 04:33N 33°46' W 118°15'1 0.9
2016-Jul-19 03:33N 33°46' W 118°16'0 0.1
2016-Jul-19 02:33N 33°46' W 118°16'2 1.7
2016-Jul-19 01:33N 33°46' W 118°14'1 0.7
2016-Jul-19 00:33N 33°46' W 118°13'0 0.0
2016-Jul-18 23:32N 33°46' W 118°13'1 0.7
2016-Jul-18 22:33N 33°46' W 118°13'3 2.9
2016-Jul-18 21:33N 33°45' W 118°16'0 0.3
2016-Jul-18 20:33N 33°45' W 118°16'3 2.7
2016-Jul-18 19:33N 33°44' W 118°13'2 0.4
2016-Jul-18 13:16N 33°46' W 118°14'1 0.4
2016-Jul-18 11:31N 33°46' W 118°13'3 1.5
2016-Jul-18 09:17N 33°44' W 118°16'4 4.8
2016-Jul-18 08:29N 33°42' W 118°12'3 2.8
2016-Jul-18 07:14N 33°46' W 118°13'0 0.0
2016-Jul-18 06:23N 33°46' W 118°13'2 0.6
2016-Jul-18 02:33N 33°45' W 118°16'0 0.1
2016-Jul-18 01:30N 33°45' W 118°16'3 2.9
2016-Jul-18 00:30N 33°43' W 118°14'3 2.7
2016-Jul-17 23:25N 33°45' W 118°12'0 0.1
2016-Jul-17 22:32N 33°45' W 118°12'1 1.0
2016-Jul-17 21:27N 33°44' W 118°11'2 0.8
2016-Jul-17 18:12N 33°46' W 118°13'1 0.3
2016-Jul-17 14:12N 33°45' W 118°12'0 0.6
2016-Jul-17 13:30N 33°44' W 118°12'2 1.4
2016-Jul-17 12:22N 33°46' W 118°13'0 0.4
2016-Jul-17 11:21N 33°46' W 118°13'4 4.5
2016-Jul-17 10:32N 33°43' W 118°16'3 2.6
2016-Jul-17 09:32N 33°46' W 118°16'2 0.7
2016-Jul-17 06:26N 33°46' W 118°13'1 0.2
2016-Jul-17 02:28N 33°45' W 118°14'0 0.1
2016-Jul-17 01:33N 33°45' W 118°14'1 1.0
2016-Jul-17 00:08N 33°46' W 118°13'  

Dump ship's entire track history